Time;durP1;ratioP1;P1;durP2;ratioP2;P2;SDS_P1;SDS_P2;PMS_P1;PMS_P2;Temp;Humidity;BMP_temperature;BMP_pressure;BME280_temperature;BME280_humidity;BME280_pressure;Samples;Min_cycle;Max_cycle;Signal;HPM_P1;HPM_P2
2023/09/09 00:00:58;;;;;;;21.98;18.10;;;17.00;99.90;;;;;;7603267;19;20014;-75
2023/09/09 00:03:30;;;;;;;28.17;18.45;;;17.00;99.90;;;;;;7599878;19;20019;-76
2023/09/09 00:06:10;;;;;;;27.05;18.20;;;17.00;99.90;;;;;;7592403;19;20018;-75
2023/09/09 00:08:43;;;;;;;22.23;17.40;;;17.00;99.90;;;;;;7596978;19;20022;-75
2023/09/09 00:11:15;;;;;;;24.50;18.83;;;17.10;99.90;;;;;;7594972;19;20034;-74
2023/09/09 00:13:48;;;;;;;24.05;17.63;;;16.90;99.90;;;;;;7593584;19;20288;-76
2023/09/09 00:16:20;;;;;;;25.83;17.05;;;17.00;99.90;;;;;;7599136;19;20060;-75
2023/09/09 00:18:55;;;;;;;23.48;18.20;;;17.00;99.90;;;;;;7600776;19;20092;-75
2023/09/09 00:21:27;;;;;;;22.90;17.90;;;17.10;99.90;;;;;;7595845;19;20103;-75
2023/09/09 00:24:00;;;;;;;22.67;17.67;;;17.10;99.90;;;;;;7593525;19;20110;-77
2023/09/09 00:26:32;;;;;;;23.58;17.95;;;17.00;99.90;;;;;;7599862;19;20048;-76
2023/09/09 00:29:04;;;;;;;25.77;17.88;;;17.00;99.90;;;;;;7595765;19;20030;-76
2023/09/09 00:31:37;;;;;;;25.63;16.92;;;16.90;99.90;;;;;;7593260;19;20446;-75
2023/09/09 00:34:09;;;;;;;26.05;17.38;;;16.90;99.90;;;;;;7591899;19;20018;-75
2023/09/09 00:36:41;;;;;;;21.80;17.55;;;16.90;99.90;;;;;;7586220;19;20063;-76
2023/09/09 00:39:14;;;;;;;21.50;17.35;;;16.80;99.90;;;;;;7597529;19;20694;-74
2023/09/09 00:41:46;;;;;;;22.30;16.90;;;16.80;99.90;;;;;;7591472;19;20019;-76
2023/09/09 00:44:19;;;;;;;21.17;16.92;;;16.80;99.90;;;;;;7596792;19;20051;-76
2023/09/09 00:46:52;;;;;;;26.08;16.70;;;16.70;99.90;;;;;;7600900;19;20025;-75
2023/09/09 00:49:25;;;;;;;19.02;16.45;;;16.60;99.90;;;;;;7597159;19;21032;-76
2023/09/09 00:51:57;;;;;;;24.20;17.03;;;16.70;99.90;;;;;;7591852;19;20611;-77
2023/09/09 00:54:30;;;;;;;20.92;15.80;;;16.60;99.90;;;;;;7595756;19;21196;-77
2023/09/09 00:57:04;;;;;;;20.90;16.58;;;16.60;99.90;;;;;;7592533;19;20022;-75
2023/09/09 00:59:38;;;;;;;20.20;15.57;;;16.70;99.90;;;;;;7595657;19;20023;-76
2023/09/09 01:02:10;;;;;;;22.10;17.35;;;16.60;99.90;;;;;;7598261;19;20054;-75
2023/09/09 01:04:43;;;;;;;19.65;16.17;;;16.60;99.90;;;;;;7586760;19;20138;-76
2023/09/09 01:07:16;;;;;;;20.55;16.58;;;16.60;99.90;;;;;;7598123;19;20639;-76
2023/09/09 01:09:48;;;;;;;23.52;16.10;;;16.70;99.90;;;;;;7594366;19;20124;-76
2023/09/09 01:12:24;;;;;;;24.55;16.08;;;16.70;99.90;;;;;;7595784;19;20018;-75
2023/09/09 01:14:56;;;;;;;20.50;16.90;;;16.70;99.90;;;;;;7600393;19;20368;-75
2023/09/09 01:17:30;;;;;;;22.73;16.40;;;16.60;99.90;;;;;;7595459;19;20770;-77
2023/09/09 01:20:09;;;;;;;23.05;16.25;;;16.50;99.90;;;;;;7593333;19;20103;-75
2023/09/09 01:22:43;;;;;;;19.15;15.50;;;16.50;99.90;;;;;;7589839;19;20033;-77
2023/09/09 01:25:16;;;;;;;21.23;16.55;;;16.50;99.90;;;;;;7594480;19;20033;-76
2023/09/09 01:27:49;;;;;;;19.55;16.17;;;16.40;99.90;;;;;;7594144;19;20018;-75
2023/09/09 01:30:22;;;;;;;21.10;16.50;;;16.40;99.90;;;;;;7590706;19;20015;-76
2023/09/09 01:32:54;;;;;;;24.23;15.48;;;16.40;99.90;;;;;;7594064;19;20511;-76
2023/09/09 01:35:27;;;;;;;24.87;17.80;;;16.40;99.90;;;;;;7592283;19;20613;-75
2023/09/09 01:37:59;;;;;;;20.13;15.68;;;16.30;99.90;;;;;;7600518;19;20015;-77
2023/09/09 01:40:31;;;;;;;20.75;16.77;;;16.30;99.90;;;;;;7591281;19;20060;-75
2023/09/09 01:43:04;;;;;;;25.98;15.90;;;16.30;99.90;;;;;;7595652;19;20039;-76
2023/09/09 01:45:36;;;;;;;20.70;15.90;;;16.20;99.90;;;;;;7593868;19;20491;-75
2023/09/09 01:48:09;;;;;;;22.80;16.65;;;16.30;99.90;;;;;;7593782;19;20440;-74
2023/09/09 01:50:44;;;;;;;22.65;16.23;;;16.20;99.90;;;;;;7586786;19;20014;-75
2023/09/09 01:53:16;;;;;;;23.42;16.20;;;16.10;99.90;;;;;;7588783;19;20026;-76
2023/09/09 01:55:48;;;;;;;22.20;15.85;;;16.00;99.90;;;;;;7585546;19;20014;-75
2023/09/09 01:58:22;;;;;;;20.08;15.93;;;16.10;99.90;;;;;;7597559;19;20472;-74
2023/09/09 02:00:54;;;;;;;22.27;16.92;;;16.10;99.90;;;;;;7579757;19;20010;-75
2023/09/09 02:03:26;;;;;;;28.33;18.52;;;16.00;99.90;;;;;;7590015;19;20880;-75
2023/09/09 02:06:00;;;;;;;;;;;15.90;99.90;;;;;;7583399;19;21309;-75
2023/09/09 02:08:32;;;;;;;25.73;16.60;;;15.90;99.90;;;;;;7584459;19;19922;-76
2023/09/09 02:11:04;;;;;;;20.58;16.02;;;15.90;99.90;;;;;;7594131;19;20055;-76
2023/09/09 02:13:37;;;;;;;21.23;15.88;;;16.00;99.90;;;;;;7585620;19;20017;-75
2023/09/09 02:16:09;;;;;;;19.30;15.98;;;16.00;99.90;;;;;;7598435;19;20014;-76
2023/09/09 02:18:42;;;;;;;21.85;18.48;;;16.00;99.90;;;;;;7579588;19;20015;-77
2023/09/09 02:21:14;;;;;;;22.60;16.13;;;16.00;99.90;;;;;;7588684;19;20052;-76
2023/09/09 02:23:46;;;;;;;21.60;16.95;;;15.90;99.90;;;;;;7578931;19;20021;-76
2023/09/09 02:26:19;;;;;;;21.77;16.95;;;15.90;99.90;;;;;;7592630;19;20045;-76
2023/09/09 02:28:51;;;;;;;20.40;15.63;;;16.00;99.90;;;;;;7588073;19;20480;-75
2023/09/09 02:31:23;;;;;;;23.65;15.77;;;16.00;99.90;;;;;;7593407;19;20740;-75
2023/09/09 02:33:57;;;;;;;20.52;16.95;;;16.00;99.90;;;;;;7601506;19;20082;-75
2023/09/09 02:36:29;;;;;;;22.77;15.88;;;15.90;99.90;;;;;;7584746;19;20019;-76
2023/09/09 02:39:01;;;;;;;17.80;14.82;;;15.80;99.90;;;;;;7585902;19;20017;-75
2023/09/09 02:41:33;;;;;;;21.88;15.38;;;15.80;99.90;;;;;;7591902;19;20139;-75
2023/09/09 02:44:07;;;;;;;19.38;15.65;;;15.80;99.90;;;;;;7602789;19;20014;-76
2023/09/09 02:46:39;;;;;;;21.35;15.05;;;15.80;99.90;;;;;;7598453;19;20022;-76
2023/09/09 02:49:11;;;;;;;20.02;15.30;;;15.80;99.90;;;;;;7603111;19;20860;-76
2023/09/09 02:51:43;;;;;;;22.33;16.42;;;15.80;99.90;;;;;;7589480;19;20053;-75
2023/09/09 02:54:16;;;;;;;24.67;16.45;;;15.80;99.90;;;;;;7595270;19;20018;-75
2023/09/09 02:56:48;;;;;;;19.40;16.08;;;15.80;99.90;;;;;;7588981;19;20014;-76
2023/09/09 02:59:25;;;;;;;22.13;16.42;;;15.70;99.90;;;;;;7598772;19;20119;-77
2023/09/09 03:01:58;;;;;;;21.00;15.65;;;15.70;99.90;;;;;;7585924;19;20034;-75
2023/09/09 03:04:30;;;;;;;21.45;16.73;;;15.70;99.90;;;;;;7597371;19;20026;-76
2023/09/09 03:07:03;;;;;;;25.85;16.88;;;15.70;99.90;;;;;;7591213;19;20033;-77
2023/09/09 03:09:36;;;;;;;23.48;16.23;;;15.70;99.90;;;;;;7591365;19;20014;-74
2023/09/09 03:12:09;;;;;;;27.80;19.30;;;15.70;99.90;;;;;;7597335;19;20014;-76
2023/09/09 03:14:41;;;;;;;23.70;17.23;;;15.80;99.90;;;;;;7570507;19;20015;-75
2023/09/09 03:17:14;;;;;;;21.15;15.95;;;15.80;99.90;;;;;;7603836;19;20010;-75
2023/09/09 03:19:46;;;;;;;23.40;18.17;;;15.80;99.90;;;;;;7587065;19;20922;-76
2023/09/09 03:22:19;;;;;;;24.90;16.95;;;15.90;99.90;;;;;;7587865;19;20821;-77
2023/09/09 03:24:51;;;;;;;21.88;16.25;;;15.90;99.90;;;;;;7596992;19;20011;-75
2023/09/09 03:27:24;;;;;;;23.35;16.58;;;15.90;99.90;;;;;;7599826;19;20014;-75
2023/09/09 03:29:56;;;;;;;22.50;17.93;;;15.90;99.90;;;;;;7577524;19;20052;-76
2023/09/09 03:32:29;;;;;;;22.90;15.45;;;15.90;99.90;;;;;;7554351;19;20056;-75
2023/09/09 03:35:02;;;;;;;;;;;15.80;99.90;;;;;;7576895;19;20022;-77
2023/09/09 03:37:34;;;;;;;22.52;15.98;;;15.80;99.90;;;;;;7596788;19;19923;-77
2023/09/09 03:40:07;;;;;;;22.33;14.88;;;15.80;99.90;;;;;;7593706;19;20026;-75
2023/09/09 03:42:40;;;;;;;20.95;14.82;;;15.70;99.90;;;;;;7589589;19;20587;-75
2023/09/09 03:45:12;;;;;;;23.55;15.60;;;15.70;99.90;;;;;;7588052;19;20025;-75
2023/09/09 03:47:45;;;;;;;22.58;16.55;;;15.70;99.90;;;;;;7566255;19;20026;-76
2023/09/09 03:50:17;;;;;;;20.67;15.32;;;15.70;99.90;;;;;;7603571;19;20029;-75
2023/09/09 03:52:49;;;;;;;27.00;17.05;;;15.70;99.90;;;;;;7588256;19;20496;-75
2023/09/09 03:55:22;;;;;;;21.83;16.70;;;15.60;99.90;;;;;;7593903;19;20488;-76
2023/09/09 03:57:54;;;;;;;20.63;15.93;;;15.60;99.90;;;;;;7587234;19;20088;-75
2023/09/09 04:00:26;;;;;;;23.08;16.05;;;15.60;99.90;;;;;;7596859;19;20428;-75
2023/09/09 04:03:00;;;;;;;26.45;17.35;;;15.60;99.90;;;;;;7581134;19;20122;-76
2023/09/09 04:05:32;;;;;;;22.20;15.17;;;15.50;99.90;;;;;;7585085;19;20114;-75
2023/09/09 04:08:08;;;;;;;22.55;15.80;;;15.60;99.90;;;;;;7599796;19;20026;-77
2023/09/09 04:10:41;;;;;;;24.92;16.02;;;15.60;99.90;;;;;;7599503;19;20365;-77
2023/09/09 04:13:13;;;;;;;21.17;15.95;;;15.60;99.90;;;;;;7593403;19;20692;-76
2023/09/09 04:15:45;;;;;;;20.88;16.52;;;15.60;99.90;;;;;;7602884;19;20025;-75
2023/09/09 04:18:17;;;;;;;21.95;16.55;;;15.50;99.90;;;;;;7595713;19;20026;-76
2023/09/09 04:21:05;;;;;;;21.00;16.33;;;15.50;99.90;;;;;;7598938;19;20014;-77
2023/09/09 04:23:37;;;;;;;21.20;16.15;;;15.50;99.90;;;;;;7596556;19;20392;-76
2023/09/09 04:26:10;;;;;;;19.50;16.23;;;15.40;99.90;;;;;;7596849;19;20010;-75
2023/09/09 04:28:42;;;;;;;23.42;17.55;;;15.40;99.90;;;;;;7595254;19;20019;-76
2023/09/09 04:31:15;;;;;;;20.30;16.20;;;15.40;99.90;;;;;;7602936;19;20030;-77
2023/09/09 04:33:48;;;;;;;21.00;15.68;;;15.40;99.90;;;;;;7606321;19;20500;-76
2023/09/09 04:36:21;;;;;;;24.10;15.68;;;15.50;99.90;;;;;;7602513;19;20015;-76
2023/09/09 04:38:53;;;;;;;20.25;16.15;;;15.40;99.90;;;;;;7603795;19;20021;-75
2023/09/09 04:41:26;;;;;;;21.25;16.70;;;15.40;99.90;;;;;;7590423;19;20017;-75
2023/09/09 04:43:58;;;;;;;22.85;18.52;;;15.40;99.90;;;;;;7590369;19;20016;-75
2023/09/09 04:46:30;;;;;;;19.50;15.77;;;15.60;99.90;;;;;;7601569;19;20508;-76
2023/09/09 04:49:03;;;;;;;24.60;15.95;;;15.60;99.90;;;;;;7599525;19;20028;-75
2023/09/09 04:51:35;;;;;;;19.30;14.57;;;15.60;99.90;;;;;;7568882;19;20669;-76
2023/09/09 04:54:09;;;;;;;19.45;15.32;;;15.60;99.90;;;;;;7578772;19;20061;-75
2023/09/09 04:56:41;;;;;;;18.55;14.95;;;15.50;99.90;;;;;;7577185;19;20044;-76
2023/09/09 04:59:13;;;;;;;20.80;16.33;;;15.50;99.90;;;;;;7579000;19;20025;-77
2023/09/09 05:01:46;;;;;;;22.80;17.52;;;15.60;99.90;;;;;;7602820;19;20022;-75
2023/09/09 05:04:19;;;;;;;18.55;15.30;;;15.50;99.90;;;;;;7599292;19;20019;-76
2023/09/09 05:06:53;;;;;;;23.35;17.08;;;15.50;99.90;;;;;;7591021;19;20036;-75
2023/09/09 05:09:27;;;;;;;22.10;16.23;;;15.40;99.90;;;;;;7598766;19;20022;-74
2023/09/09 05:11:59;;;;;;;17.27;15.05;;;15.50;99.90;;;;;;7594707;19;20239;-75
2023/09/09 05:14:32;;;;;;;18.20;15.50;;;15.50;99.90;;;;;;7591654;19;20010;-76
2023/09/09 05:17:05;;;;;;;19.05;14.98;;;15.50;99.90;;;;;;7598338;19;20017;-76
2023/09/09 05:19:38;;;;;;;21.65;14.95;;;15.60;99.90;;;;;;7598268;19;20022;-76
2023/09/09 05:22:10;;;;;;;21.70;16.80;;;15.60;99.90;;;;;;7602769;19;21769;-76
2023/09/09 05:24:43;;;;;;;20.73;17.17;;;15.60;99.90;;;;;;7598329;19;20694;-75
2023/09/09 05:27:15;;;;;;;24.38;17.60;;;15.60;99.90;;;;;;7600307;19;20104;-75
2023/09/09 05:29:48;;;;;;;20.80;17.10;;;15.60;99.90;;;;;;7590247;19;20059;-76
2023/09/09 05:32:22;;;;;;;21.63;18.02;;;15.80;99.90;;;;;;7599781;19;20010;-76
2023/09/09 05:34:54;;;;;;;25.00;18.13;;;15.90;99.90;;;;;;7594034;19;20530;-75
2023/09/09 05:37:28;;;;;;;21.33;17.17;;;15.90;99.90;;;;;;7593097;19;20026;-74
2023/09/09 05:40:00;;;;;;;22.23;17.08;;;16.00;99.90;;;;;;7594620;19;20473;-76
2023/09/09 05:42:36;;;;;;;23.35;18.77;;;15.90;99.90;;;;;;7600216;19;20924;-76
2023/09/09 05:45:09;;;;;;;24.97;19.20;;;16.00;99.90;;;;;;7591156;19;20022;-76
2023/09/09 05:47:44;;;;;;;26.52;18.02;;;16.10;99.90;;;;;;7594730;19;20317;-75
2023/09/09 05:50:17;;;;;;;21.70;18.52;;;16.20;99.90;;;;;;7594316;19;20015;-77
2023/09/09 05:52:49;;;;;;;22.13;17.52;;;16.30;99.90;;;;;;7592142;19;20012;-75
2023/09/09 05:55:22;;;;;;;22.75;18.58;;;16.30;99.90;;;;;;7593969;19;20018;-75
2023/09/09 05:57:54;;;;;;;23.67;17.83;;;16.30;99.90;;;;;;7585888;19;20018;-75
2023/09/09 06:00:27;;;;;;;22.73;17.23;;;16.40;99.90;;;;;;7567419;19;20014;-74
2023/09/09 06:02:59;;;;;;;19.60;16.10;;;16.50;99.90;;;;;;7592736;19;20413;-76
2023/09/09 06:05:32;;;;;;;20.80;16.20;;;16.60;99.90;;;;;;7591255;19;20019;-76
2023/09/09 06:08:04;;;;;;;23.65;18.70;;;16.70;99.90;;;;;;7591784;19;20090;-75
2023/09/09 06:10:36;;;;;;;22.38;17.20;;;16.80;99.90;;;;;;7597021;19;20026;-75
2023/09/09 06:13:09;;;;;;;20.55;17.52;;;16.90;99.90;;;;;;7603718;19;20015;-76
2023/09/09 06:15:42;;;;;;;20.42;17.63;;;17.00;99.90;;;;;;7596185;19;20018;-75
2023/09/09 06:18:14;;;;;;;26.83;18.75;;;17.20;99.90;;;;;;7593498;19;20029;-77
2023/09/09 06:20:47;;;;;;;20.90;17.55;;;17.30;99.90;;;;;;7595873;19;20010;-75
2023/09/09 06:23:20;;;;;;;;;;;17.40;99.90;;;;;;7599175;19;20015;-76
2023/09/09 06:25:52;;;;;;;25.30;18.15;;;17.60;99.90;;;;;;7587274;19;19918;-76
2023/09/09 06:28:25;;;;;;;21.00;17.80;;;17.70;99.90;;;;;;7595702;19;20018;-76
2023/09/09 06:30:57;;;;;;;20.02;16.48;;;17.80;99.90;;;;;;7592986;19;20027;-76
2023/09/09 06:33:30;;;;;;;21.45;18.08;;;18.00;99.90;;;;;;7583267;19;21236;-75
2023/09/09 06:36:02;;;;;;;21.98;17.92;;;18.10;99.90;;;;;;7529204;19;20019;-75
2023/09/09 06:38:35;;;;;;;24.27;17.85;;;18.30;99.90;;;;;;7573611;19;20025;-75
2023/09/09 06:41:07;;;;;;;20.10;17.17;;;18.50;99.90;;;;;;7575614;19;20029;-75
2023/09/09 06:43:39;;;;;;;22.67;18.52;;;18.60;99.90;;;;;;7552745;19;20011;-75
2023/09/09 06:46:12;;;;;;;19.73;16.88;;;18.70;99.90;;;;;;7578186;19;20026;-75
2023/09/09 06:48:45;;;;;;;26.10;18.75;;;18.80;99.90;;;;;;7574344;19;20075;-74
2023/09/09 06:51:17;;;;;;;21.27;17.20;;;19.00;99.90;;;;;;7581728;19;20604;-76
2023/09/09 06:53:49;;;;;;;21.45;16.67;;;19.10;99.90;;;;;;7537372;19;20010;-75
2023/09/09 06:56:23;;;;;;;21.98;17.85;;;19.30;99.90;;;;;;7593268;19;20019;-75
2023/09/09 06:58:56;;;;;;;25.08;18.17;;;19.50;99.90;;;;;;7640982;19;20019;-75
2023/09/09 07:01:28;;;;;;;23.30;17.95;;;19.60;99.90;;;;;;7635655;19;20022;-76
2023/09/09 07:04:01;;;;;;;23.55;19.08;;;19.70;99.90;;;;;;7596863;19;20015;-76
2023/09/09 07:06:34;;;;;;;23.90;17.80;;;19.90;99.90;;;;;;7582620;19;20021;-76
2023/09/09 07:09:07;;;;;;;21.70;17.00;;;20.00;99.90;;;;;;7584588;19;20601;-76
2023/09/09 07:11:41;;;;;;;21.33;17.20;;;20.20;99.90;;;;;;7592489;19;20011;-77
2023/09/09 07:14:13;;;;;;;;;;;20.30;99.90;;;;;;7587184;19;21920;-76
2023/09/09 07:16:45;;;;;;;23.30;17.48;;;20.50;99.90;;;;;;7592434;19;19930;-75
2023/09/09 07:19:18;;;;;;;21.63;17.77;;;20.60;99.90;;;;;;7562083;19;20286;-76
2023/09/09 07:21:50;;;;;;;22.42;17.55;;;20.70;99.90;;;;;;7555853;19;20018;-76
2023/09/09 07:24:22;;;;;;;21.08;17.23;;;20.90;99.90;;;;;;7549397;19;20017;-75
2023/09/09 07:26:54;;;;;;;24.35;18.02;;;21.00;99.90;;;;;;7534734;19;20094;-75
2023/09/09 07:29:27;;;;;;;21.17;17.17;;;21.00;99.90;;;;;;7534750;19;22328;-75
2023/09/09 07:31:59;;;;;;;18.63;16.63;;;21.20;99.90;;;;;;7576807;19;20051;-76
2023/09/09 07:34:33;;;;;;;19.40;16.92;;;21.30;99.90;;;;;;7587469;19;20011;-75
2023/09/09 07:37:05;;;;;;;;;;;21.40;99.90;;;;;;7586939;19;20049;-76
2023/09/09 07:39:52;;;;;;;21.30;17.20;;;21.50;99.90;;;;;;7591098;19;19926;-76
2023/09/09 07:42:25;;;;;;;21.27;16.65;;;21.60;99.90;;;;;;7588158;19;20022;-74
2023/09/09 07:44:57;;;;;;;18.58;16.58;;;21.70;99.90;;;;;;7589545;19;20879;-75
2023/09/09 07:47:29;;;;;;;18.52;16.27;;;21.80;99.90;;;;;;7549790;19;20535;-75
2023/09/09 07:50:02;;;;;;;19.90;16.60;;;21.90;99.90;;;;;;7573590;19;20706;-76
2023/09/09 07:52:34;;;;;;;19.95;15.75;;;22.00;99.90;;;;;;7529061;19;20015;-75
2023/09/09 07:55:07;;;;;;;26.10;16.45;;;22.10;99.90;;;;;;7568991;19;20018;-75
2023/09/09 07:57:39;;;;;;;20.13;16.63;;;22.10;99.90;;;;;;7574014;19;20038;-76
2023/09/09 08:00:13;;;;;;;19.10;16.88;;;22.20;99.90;;;;;;7587092;19;20046;-75
2023/09/09 08:02:46;;;;;;;16.75;14.98;;;22.30;99.90;;;;;;7605847;19;20007;-75
2023/09/09 08:05:19;;;;;;;;;;;22.40;99.90;;;;;;7603527;19;20010;-75
2023/09/09 08:07:51;;;;;;;21.05;15.80;;;22.50;99.90;;;;;;7613184;19;20269;-75
2023/09/09 08:10:23;;;;;;;17.48;14.80;;;22.60;99.90;;;;;;7599852;19;20018;-75
2023/09/09 08:12:56;;;;;;;23.63;16.10;;;22.80;99.90;;;;;;7602321;19;20094;-74
2023/09/09 08:15:28;;;;;;;18.73;16.15;;;22.80;99.90;;;;;;7609892;19;20034;-76
2023/09/09 08:18:14;;;;;;;17.67;15.80;;;22.80;99.90;;;;;;7608973;19;20077;-75
2023/09/09 08:20:53;;;;;;;17.35;15.07;;;22.90;99.90;;;;;;7603699;19;20123;-76
2023/09/09 08:23:25;;;;;;;17.45;15.32;;;23.00;99.90;;;;;;7603378;19;20044;-74
2023/09/09 08:25:57;;;;;;;19.50;15.82;;;23.10;99.90;;;;;;7603901;19;20014;-76
2023/09/09 08:28:30;;;;;;;19.03;16.47;;;23.10;99.90;;;;;;7610370;19;20018;-74
2023/09/09 08:31:02;;;;;;;18.95;15.02;;;23.10;99.90;;;;;;7616124;19;20324;-75
2023/09/09 08:33:35;;;;;;;20.00;14.98;;;23.20;99.90;;;;;;7608048;19;20918;-75
2023/09/09 08:36:08;;;;;;;19.08;15.40;;;23.30;99.90;;;;;;7613805;19;20025;-75
2023/09/09 08:38:40;;;;;;;16.73;14.85;;;23.30;99.90;;;;;;7602024;19;20434;-76
2023/09/09 08:41:21;;;;;;;18.27;15.82;;;23.30;99.90;;;;;;7590607;19;20033;-75
2023/09/09 08:44:10;;;;;;;18.95;15.90;;;23.40;99.90;;;;;;7617901;19;20034;-76
2023/09/09 08:46:42;;;;;;;19.17;15.48;;;23.40;99.90;;;;;;7603921;19;20018;-75
2023/09/09 08:49:20;;;;;;;19.75;15.40;;;23.40;99.90;;;;;;7597841;19;20026;-76
2023/09/09 08:52:00;;;;;;;15.70;14.10;;;23.40;99.90;;;;;;7598873;19;20336;-74
2023/09/09 08:54:33;;;;;;;20.08;16.08;;;23.60;99.90;;;;;;7605684;19;20021;-77
2023/09/09 08:57:05;;;;;;;19.42;15.10;;;23.60;99.90;;;;;;7624198;19;20603;-75
2023/09/09 08:59:41;;;;;;;16.95;14.15;;;23.70;99.90;;;;;;7595525;19;20078;-74
2023/09/09 09:02:15;;;;;;;17.35;15.38;;;23.80;99.90;;;;;;7605522;19;20022;-74
2023/09/09 09:04:49;;;;;;;17.27;15.05;;;23.80;99.90;;;;;;7614158;19;20492;-75
2023/09/09 09:07:23;;;;;;;17.38;15.13;;;23.80;99.90;;;;;;7594968;19;20021;-75
2023/09/09 09:09:55;;;;;;;19.63;14.98;;;23.90;99.90;;;;;;7605142;19;20403;-75
2023/09/09 09:12:35;;;;;;;18.27;15.57;;;24.00;99.90;;;;;;7603608;19;20018;-76
2023/09/09 09:15:10;;;;;;;17.60;15.80;;;24.00;99.90;;;;;;7580695;19;20033;-76
2023/09/09 09:17:44;;;;;;;16.08;14.32;;;24.10;99.90;;;;;;7602834;19;20026;-76
2023/09/09 09:20:31;;;;;;;16.27;14.43;;;24.10;99.90;;;;;;7599365;19;20024;-75
2023/09/09 09:23:05;;;;;;;19.52;14.73;;;24.20;99.90;;;;;;7597156;19;21037;-75
2023/09/09 09:25:42;;;;;;;16.52;14.70;;;24.30;99.90;;;;;;7593190;19;20022;-76
2023/09/09 09:28:15;;;;;;;18.30;14.52;;;24.40;99.90;;;;;;7603020;19;20015;-76
2023/09/09 09:30:48;;;;;;;;;;;24.50;99.90;;;;;;7594691;19;20024;-76
2023/09/09 09:33:26;;;;;;;19.10;14.68;;;24.50;99.90;;;;;;7588469;19;19920;-76
2023/09/09 09:36:00;;;;;;;17.27;15.10;;;24.60;99.90;;;;;;7599588;19;20536;-75
2023/09/09 09:38:32;;;;;;;15.80;14.15;;;24.70;99.90;;;;;;7589598;19;20027;-75
2023/09/09 09:41:05;;;;;;;18.85;14.55;;;24.80;99.90;;;;;;7597299;19;20034;-76
2023/09/09 09:43:37;;;;;;;17.67;13.83;;;24.80;99.90;;;;;;7593890;19;20014;-76
2023/09/09 09:46:17;;;;;;;16.88;14.30;;;24.80;99.90;;;;;;7595143;19;20026;-75
2023/09/09 09:48:50;;;;;;;15.73;13.90;;;24.80;99.90;;;;;;7590236;19;20018;-74
2023/09/09 09:51:22;;;;;;;15.77;14.05;;;24.90;99.90;;;;;;7592220;19;20040;-76
2023/09/09 09:53:54;;;;;;;15.20;12.85;;;25.00;99.90;;;;;;7605244;19;20030;-77
2023/09/09 09:56:27;;;;;;;18.70;13.73;;;25.10;99.90;;;;;;7594346;19;20021;-74
2023/09/09 09:59:00;;;;;;;20.55;14.30;;;25.20;99.90;;;;;;7589618;19;20366;-76
2023/09/09 10:01:35;;;;;;;18.35;14.70;;;25.30;99.90;;;;;;7578209;19;20018;-76
2023/09/09 10:04:09;;;;;;;25.80;14.32;;;25.20;99.90;;;;;;7592661;19;20853;-74
2023/09/09 10:06:41;;;;;;;16.35;14.50;;;25.30;99.90;;;;;;7599377;19;20026;-76
2023/09/09 10:09:23;;;;;;;15.38;13.77;;;25.30;99.90;;;;;;7584245;19;20022;-76
2023/09/09 10:12:11;;;;;;;18.15;14.15;;;25.50;99.90;;;;;;7606056;19;20036;-75
2023/09/09 10:14:44;;;;;;;19.92;13.73;;;25.50;99.90;;;;;;7594807;19;20011;-76
2023/09/09 10:17:19;;;;;;;17.10;13.45;;;25.60;99.90;;;;;;7583579;19;20029;-75
2023/09/09 10:19:53;;;;;;;20.60;14.60;;;25.80;99.90;;;;;;7601380;19;20022;-76
2023/09/09 10:22:26;;;;;;;17.35;13.20;;;25.80;99.90;;;;;;7605889;19;20044;-77
2023/09/09 10:24:59;;;;;;;16.70;13.38;;;25.90;99.90;;;;;;7596178;19;20038;-74
2023/09/09 10:27:33;;;;;;;16.00;12.88;;;26.00;99.90;;;;;;7613826;19;20011;-74
2023/09/09 10:30:08;;;;;;;19.40;14.68;;;26.20;99.90;;;;;;7581778;19;20024;-75
2023/09/09 10:32:42;;;;;;;15.45;13.82;;;26.40;99.90;;;;;;7591617;19;20018;-75
2023/09/09 10:35:15;;;;;;;17.48;13.32;;;26.40;99.90;;;;;;7581067;19;20052;-75
2023/09/09 10:37:52;;;;;;;16.83;14.13;;;26.40;99.90;;;;;;7633790;19;20018;-75
2023/09/09 10:40:25;;;;;;;16.13;14.43;;;26.30;99.90;;;;;;7597804;19;20015;-75
2023/09/09 10:42:58;;;;;;;16.75;13.45;;;26.30;99.90;;;;;;7594422;19;20840;-76
2023/09/09 10:45:32;;;;;;;16.30;13.77;;;26.30;99.90;;;;;;7625146;19;20022;-76
2023/09/09 10:48:07;;;;;;;19.88;14.10;;;26.20;99.90;;;;;;7617869;19;20017;-75
2023/09/09 10:50:49;;;;;;;17.63;14.10;;;26.20;99.90;;;;;;7588564;19;20029;-76
2023/09/09 10:53:29;;;;;;;16.15;13.85;;;26.10;99.90;;;;;;7646969;19;20027;-74
2023/09/09 10:56:15;;;;;;;18.02;14.63;;;26.10;99.90;;;;;;7625869;19;20098;-76
2023/09/09 10:58:50;;;;;;;15.25;13.52;;;26.40;99.90;;;;;;7610914;19;20018;-75
2023/09/09 11:01:24;;;;;;;18.42;14.40;;;26.50;99.90;;;;;;7595770;19;20019;-76
2023/09/09 11:03:57;;;;;;;17.08;14.07;;;26.40;99.90;;;;;;7599066;19;20824;-76
2023/09/09 11:06:31;;;;;;;16.70;14.57;;;26.40;99.90;;;;;;7596182;19;20784;-76
2023/09/09 11:09:10;;;;;;;20.42;13.95;;;26.40;99.90;;;;;;7593849;19;20025;-76
2023/09/09 11:11:44;;;;;;;15.55;13.65;;;26.50;99.90;;;;;;7591902;19;20015;-75
2023/09/09 11:14:19;;;;;;;18.33;14.10;;;26.40;99.90;;;;;;7576828;19;20782;-77
2023/09/09 11:16:54;;;;;;;16.58;13.32;;;26.70;99.90;;;;;;7582026;19;20026;-76
2023/09/09 11:19:29;;;;;;;20.65;13.90;;;26.90;99.90;;;;;;7592934;19;20060;-77
2023/09/09 11:22:04;;;;;;;19.15;13.65;;;27.30;99.90;;;;;;7602778;19;20543;-74
2023/09/09 11:24:37;;;;;;;15.05;13.18;;;27.80;99.90;;;;;;7595203;19;20018;-76
2023/09/09 11:27:10;;;;;;;17.17;13.45;;;28.00;99.90;;;;;;7586475;19;20018;-74
2023/09/09 11:29:51;;;;;;;18.90;13.57;;;28.30;99.90;;;;;;7571365;19;20530;-76
2023/09/09 11:32:28;;;;;;;20.17;14.07;;;28.60;99.90;;;;;;7566039;19;20023;-76
2023/09/09 11:35:02;;;;;;;15.70;13.82;;;29.00;99.90;;;;;;7596989;19;20503;-76
2023/09/09 11:37:34;;;;;;;15.93;13.15;;;29.50;99.90;;;;;;7601643;19;20670;-77
2023/09/09 11:40:08;;;;;;;13.87;12.43;;;29.80;99.90;;;;;;7597010;19;20019;-76
2023/09/09 11:42:51;;;;;;;18.40;12.98;;;30.30;99.90;;;;;;7567553;19;20018;-74
2023/09/09 11:48:58;;;;;;;;;;;30.90;99.90;;;;;;7552284;19;20011;-73
2023/09/09 11:51:32;;;;;;;15.63;13.20;;;30.50;99.30;;;;;;7569381;19;20479;-76
2023/09/09 11:54:06;;;;;;;;;;;30.10;99.80;;;;;;7578886;19;20958;-76
2023/09/09 11:56:38;;;;;;;17.15;13.88;;;30.00;99.70;;;;;;7540459;19;19950;-76
2023/09/09 11:59:11;;;;;;;15.10;13.50;;;29.70;99.90;;;;;;7566804;19;20021;-75
2023/09/09 12:01:45;;;;;;;15.68;13.10;;;29.50;99.90;;;;;;7545379;19;20052;-76
2023/09/09 12:04:17;;;;;;;14.57;13.00;;;29.60;99.90;;;;;;7576662;19;20109;-77
2023/09/09 12:06:52;;;;;;;16.77;12.97;;;30.10;99.90;;;;;;7584993;19;20014;-75
2023/09/09 12:09:24;;;;;;;13.70;12.30;;;30.70;98.70;;;;;;7561005;19;20018;-76
2023/09/09 12:16:09;;;;;;;14.23;12.70;;;31.10;97.70;;;;;;7556465;19;20271;-76
2023/09/09 12:18:51;;;;;;;16.55;12.63;;;31.60;96.60;;;;;;7562144;19;20111;-75
2023/09/09 12:21:24;;;;;;;15.80;13.77;;;31.90;95.30;;;;;;7549937;19;20026;-75
2023/09/09 12:23:58;;;;;;;14.52;12.98;;;31.90;95.80;;;;;;7548416;19;20011;-75
2023/09/09 12:26:30;;;;;;;15.85;12.70;;;32.10;96.30;;;;;;7563228;19;20531;-75
2023/09/09 12:29:10;;;;;;;14.13;12.55;;;32.50;95.70;;;;;;7550483;19;20089;-75
2023/09/09 12:31:57;;;;;;;13.82;12.25;;;32.60;95.40;;;;;;7563662;19;20089;-75
2023/09/09 12:34:31;;;;;;;13.73;12.32;;;32.80;95.20;;;;;;7560009;19;20015;-76
2023/09/09 12:37:03;;;;;;;15.55;13.48;;;32.90;94.30;;;;;;7565551;19;20025;-74
2023/09/09 12:39:36;;;;;;;17.17;13.43;;;32.90;93.40;;;;;;7568102;19;20041;-74
2023/09/09 12:42:09;;;;;;;16.17;13.13;;;33.00;93.00;;;;;;7580625;19;20859;-75
2023/09/09 12:44:51;;;;;;;17.55;13.68;;;33.40;93.30;;;;;;7547891;19;20010;-75
2023/09/09 12:47:24;;;;;;;12.93;11.70;;;33.70;91.30;;;;;;7577341;19;20019;-76
2023/09/09 12:49:56;;;;;;;16.20;12.60;;;34.10;91.80;;;;;;7563766;19;20890;-74
2023/09/09 12:52:32;;;;;;;14.20;12.63;;;34.10;90.80;;;;;;7575952;19;20022;-74
2023/09/09 12:55:05;;;;;;;15.25;13.65;;;33.90;90.20;;;;;;7540071;19;20481;-75
2023/09/09 12:57:37;;;;;;;14.00;12.57;;;33.40;90.00;;;;;;7551177;19;20025;-75
2023/09/09 13:00:10;;;;;;;13.70;12.30;;;33.50;90.00;;;;;;7547223;19;20014;-75
2023/09/09 13:02:42;;;;;;;;;;;33.50;88.30;;;;;;7547012;19;20017;-75
2023/09/09 13:05:15;;;;;;;16.08;12.13;;;33.70;88.80;;;;;;7564319;19;20028;-74
2023/09/09 13:07:48;;;;;;;12.85;11.55;;;33.90;87.40;;;;;;7532421;19;20066;-75
2023/09/09 13:10:21;;;;;;;14.98;12.02;;;33.60;87.10;;;;;;7525472;19;20027;-75